Komatsu, Japan
Current Conditions -  °F | °C
As of 6:00 AM on Sunday 23 Nov 2014 (Local Time) from RJNK Reporting Station
Broken Clouds Broken Clouds  
Wind Chill: 46°   Ceiling: 5000
Heat Index: 48°   Visibility: 6mi
Dew Point: 46°   Wind: 5mph
Humidity: 93%   Direction: 200°SSW
Pressure: 30.21"   Gusts: NA
Location:  36.41°N, 136.44°E
Report Text: RJNK 222100Z 20004KT 9999 FEW015 SCT025 BKN050 09/08 Q1023
Loading
Personal Weather Stations






























Interactive Weather Map New forecast layout! Learn more

10-Day Weather Forecast

Advertisements
Track Severe Weather on mobile